Time;durP1;ratioP1;P1;durP2;ratioP2;P2;SDS_P1;SDS_P2;PMS_P1;PMS_P2;Temp;Humidity;BMP_temperature;BMP_pressure;BME280_temperature;BME280_humidity;BME280_pressure;Samples;Min_cycle;Max_cycle;Signal;HPM_P1;HPM_P2
2021/08/13 00:00:21;;;;;;;;;;;;;;;13.96;100.00;101323.56;5135353;27;20031;-67
2021/08/13 00:02:47;;;;;;;;;;;;;;;13.93;100.00;101319.25;5135219;27;19919;-70
2021/08/13 00:05:14;;;;;;;;;;;;;;;13.92;100.00;101316.66;5116968;27;19923;-70
2021/08/13 00:07:40;;;;;;;;;;;;;;;13.88;100.00;101327.84;5135111;27;20042;-70
2021/08/13 00:10:07;;;;;;;;;;;;;;;13.86;100.00;101318.06;5135306;27;19927;-70
2021/08/13 00:12:34;;;;;;;;;;;;;;;13.84;100.00;101320.91;5135021;27;20021;-70
2021/08/13 00:15:00;;;;;;;;;;;;;;;13.84;100.00;101322.75;5135419;27;20014;-70
2021/08/13 00:17:28;;;;;;;;;;;;;;;13.82;100.00;101322.91;5135059;27;20006;-71
2021/08/13 00:19:55;;;;;;;;;;;;;;;13.80;100.00;101327.63;5134791;27;20014;-70
2021/08/13 00:22:21;;;;;;;;;;;;;;;13.79;100.00;101331.34;5135104;27;20361;-70
2021/08/13 00:24:48;;;;;;;;;;;;;;;13.80;100.00;101333.09;5134960;27;20396;-66
2021/08/13 00:27:14;;;;;;;;;;;;;;;13.80;100.00;101330.38;5134787;27;19919;-67
2021/08/13 00:29:40;;;;;;;;;;;;;;;13.78;100.00;101324.16;5116491;27;20006;-67
2021/08/13 00:32:07;;;;;;;;;;;;;;;13.73;100.00;101321.84;5134808;27;20010;-70
2021/08/13 00:34:35;;;;;;;;;;;;;;;13.79;100.00;101330.47;5116300;27;19939;-70
2021/08/13 00:37:02;;;;;;;;;;;;;;;13.78;100.00;101315.97;5116218;27;19919;-71
2021/08/13 00:39:28;;;;;;;;;;;;;;;13.77;100.00;101318.84;5116495;27;20323;-66
2021/08/13 00:41:55;;;;;;;;;;;;;;;13.75;100.00;101327.16;5116482;27;19964;-70
2021/08/13 00:44:21;;;;;;;;;;;;;;;13.82;100.00;101322.03;5116005;27;20374;-71
2021/08/13 00:46:49;;;;;;;;;;;;;;;13.87;100.00;101331.56;5116240;27;20413;-71
2021/08/13 00:49:24;;;;;;;;;;;;;;;13.92;100.00;101327.56;5115801;27;19923;-66
2021/08/13 00:52:05;;;;;;;;;;;;;;;13.96;100.00;101331.75;5116179;27;19923;-71
2021/08/13 00:54:34;;;;;;;;;;;;;;;13.98;100.00;101330.63;5134118;27;19975;-67
2021/08/13 00:57:02;;;;;;;;;;;;;;;14.00;100.00;101323.19;5115909;27;19926;-70
2021/08/13 00:59:40;;;;;;;;;;;;;;;14.07;100.00;101329.84;5116004;27;20049;-70
2021/08/13 01:02:12;;;;;;;;;;;;;;;14.08;100.00;101322.50;5115776;27;20017;-71
2021/08/13 01:04:39;;;;;;;;;;;;;;;14.09;100.00;101326.13;5115982;27;20039;-70
2021/08/13 01:07:16;;;;;;;;;;;;;;;14.10;100.00;101331.44;5115597;27;19924;-67
2021/08/13 01:09:43;;;;;;;;;;;;;;;14.14;100.00;101324.72;5115823;27;20384;-70
2021/08/13 01:12:12;;;;;;;;;;;;;;;14.14;100.00;101319.25;5098663;27;19919;-71
2021/08/13 01:14:44;;;;;;;;;;;;;;;14.15;100.00;101315.53;5115690;27;19927;-71
2021/08/13 01:17:15;;;;;;;;;;;;;;;14.14;100.00;101315.66;5115527;27;20018;-71
2021/08/13 01:19:48;;;;;;;;;;;;;;;14.05;100.00;101317.31;5115463;27;19965;-70
2021/08/13 01:22:17;;;;;;;;;;;;;;;14.03;100.00;101316.56;5115761;27;19925;-71
2021/08/13 01:24:46;;;;;;;;;;;;;;;14.06;100.00;101314.44;5115280;27;19926;-70
2021/08/13 01:27:14;;;;;;;;;;;;;;;14.10;100.00;101319.66;5115474;27;19957;-71
2021/08/13 01:29:43;;;;;;;;;;;;;;;14.11;100.00;101315.91;5115346;27;19972;-71
2021/08/13 01:32:26;;;;;;;;;;;;;;;14.13;100.00;101319.38;5115295;27;20034;-66
2021/08/13 01:34:56;;;;;;;;;;;;;;;14.15;100.00;101310.06;5115431;27;19966;-70
2021/08/13 01:37:22;;;;;;;;;;;;;;;14.15;100.00;101307.34;5115281;27;19919;-70
2021/08/13 01:39:59;;;;;;;;;;;;;;;14.15;100.00;101306.47;5098320;27;19980;-66
2021/08/13 01:42:27;;;;;;;;;;;;;;;14.16;100.00;101302.72;5114990;27;20336;-66
2021/08/13 01:44:55;;;;;;;;;;;;;;;14.17;100.00;101301.75;5133572;27;20025;-70
2021/08/13 01:47:23;;;;;;;;;;;;;;;14.19;100.00;101306.06;5114805;27;19920;-71
2021/08/13 01:49:50;;;;;;;;;;;;;;;14.18;100.00;101301.59;5133431;27;19954;-66
2021/08/13 01:52:17;;;;;;;;;;;;;;;14.20;100.00;101294.16;5115322;27;19923;-70
2021/08/13 01:54:44;;;;;;;;;;;;;;;14.18;100.00;101298.88;5114612;27;19923;-66
2021/08/13 01:57:11;;;;;;;;;;;;;;;14.17;100.00;101296.28;5114838;27;19962;-67
2021/08/13 01:59:38;;;;;;;;;;;;;;;14.15;100.00;101290.97;5114921;27;20002;-67
2021/08/13 02:02:04;;;;;;;;;;;;;;;14.15;100.00;101290.97;5114973;27;20316;-67
2021/08/13 02:04:39;;;;;;;;;;;;;;;14.15;100.00;101285.50;5114800;27;19926;-67
2021/08/13 02:07:08;;;;;;;;;;;;;;;14.15;100.00;101288.22;5114324;27;19926;-67
2021/08/13 02:09:35;;;;;;;;;;;;;;;14.17;100.00;101282.63;5114738;27;19919;-67
2021/08/13 02:12:01;;;;;;;;;;;;;;;14.18;100.00;101284.38;5114572;27;19919;-70
2021/08/13 02:14:31;;;;;;;;;;;;;;;14.16;100.00;101283.63;5114741;27;19919;-70
2021/08/13 02:17:00;;;;;;;;;;;;;;;14.14;100.00;101283.75;5114597;27;19923;-71
2021/08/13 02:19:32;;;;;;;;;;;;;;;14.13;100.00;101283.91;5097561;27;19920;-71
2021/08/13 02:22:01;;;;;;;;;;;;;;;14.06;100.00;101291.75;5114805;27;19920;-71
2021/08/13 02:24:28;;;;;;;;;;;;;;;14.06;100.00;101297.22;5114211;27;19980;-72
2021/08/13 02:27:04;;;;;;;;;;;;;;;14.09;100.00;101291.47;5114559;27;20382;-71
2021/08/13 02:29:30;;;;;;;;;;;;;;;14.14;100.00;101288.38;5114166;27;19923;-65
2021/08/13 02:31:59;;;;;;;;;;;;;;;14.16;100.00;101298.16;5114568;27;20014;-67
2021/08/13 02:34:27;;;;;;;;;;;;;;;14.19;100.00;101295.16;5114466;27;19919;-67
2021/08/13 02:36:59;;;;;;;;;;;;;;;14.25;100.00;101293.75;5114151;28;20383;-70
2021/08/13 02:39:29;;;;;;;;;;;;;;;14.25;100.00;101298.34;5114678;27;19923;-71
2021/08/13 02:41:57;;;;;;;;;;;;;;;14.30;100.00;101301.53;5132599;27;19965;-67
2021/08/13 02:44:24;;;;;;;;;;;;;;;14.33;100.00;101298.53;5114469;28;19920;-71
2021/08/13 02:46:54;;;;;;;;;;;;;;;14.33;100.00;101298.53;5113974;28;19920;-71
2021/08/13 02:49:21;;;;;;;;;;;;;;;14.35;100.00;101282.84;5114202;28;19919;-71
2021/08/13 02:51:49;;;;;;;;;;;;;;;14.35;100.00;101285.59;5114402;28;19919;-67
2021/08/13 02:54:17;;;;;;;;;;;;;;;14.36;100.00;101290.06;5114142;28;19927;-71
2021/08/13 02:56:46;;;;;;;;;;;;;;;14.36;100.00;101284.59;5097294;28;19919;-71
2021/08/13 02:59:15;;;;;;;;;;;;;;;14.36;100.00;101288.22;5113956;28;19926;-71
2021/08/13 03:01:44;;;;;;;;;;;;;;;14.36;100.00;101292.78;5114240;28;19920;-72
2021/08/13 03:04:12;;;;;;;;;;;;;;;14.35;100.00;101291.06;5114258;28;19923;-71
2021/08/13 03:06:39;;;;;;;;;;;;;;;14.37;100.00;101294.53;5132368;27;20422;-71
2021/08/13 03:09:07;;;;;;;;;;;;;;;14.35;100.00;101286.47;5117928;27;19919;-66
2021/08/13 03:11:34;;;;;;;;;;;;;;;14.35;100.00;101280.13;5117762;27;19923;-67
2021/08/13 03:14:04;;;;;;;;;;;;;;;14.33;100.00;101288.47;5118191;27;19964;-67
2021/08/13 03:16:33;;;;;;;;;;;;;;;14.32;100.00;101286.72;5117758;27;19923;-71
2021/08/13 03:19:00;;;;;;;;;;;;;;;14.28;100.00;101290.72;5118013;27;19925;-71
2021/08/13 03:21:28;;;;;;;;;;;;;;;14.26;100.00;101292.75;5117945;27;20028;-71
2021/08/13 03:23:56;;;;;;;;;;;;;;;14.27;100.00;101299.06;5117858;27;19923;-71
2021/08/13 03:26:22;;;;;;;;;;;;;;;14.32;100.00;101302.25;5118046;27;20070;-67
2021/08/13 03:28:49;;;;;;;;;;;;;;;14.28;100.00;101295.34;5117706;27;20351;-66
2021/08/13 03:31:31;;;;;;;;;;;;;;;14.26;100.00;101297.31;5117836;27;19939;-71
2021/08/13 03:33:59;;;;;;;;;;;;;;;14.23;100.00;101299.34;5135997;27;19919;-67
2021/08/13 03:36:28;;;;;;;;;;;;;;;14.20;100.00;101304.19;5117739;27;19927;-67
2021/08/13 03:38:54;;;;;;;;;;;;;;;14.15;100.00;101310.06;5136080;27;19951;-67
2021/08/13 03:41:21;;;;;;;;;;;;;;;14.14;100.00;101302.03;5117528;27;19920;-67
2021/08/13 03:43:48;;;;;;;;;;;;;;;14.14;100.00;101300.16;5117528;27;20009;-67
2021/08/13 03:46:15;;;;;;;;;;;;;;;14.13;100.00;101294.81;5117244;27;19919;-71
2021/08/13 03:48:42;;;;;;;;;;;;;;;14.12;100.00;101293.94;5117350;27;19951;-66
2021/08/13 03:51:11;;;;;;;;;;;;;;;14.11;100.00;101288.63;5117485;27;20464;-67
2021/08/13 03:53:38;;;;;;;;;;;;;;;14.07;100.00;101283.44;5114422;27;19923;-67
2021/08/13 03:56:04;;;;;;;;;;;;;;;14.07;100.00;101288.03;5123696;27;19981;-67
2021/08/13 03:58:34;;;;;;;;;;;;;;;14.09;100.00;101288.75;5096045;28;19973;-67
2021/08/13 04:01:03;;;;;;;;;;;;;;;14.11;100.00;101291.34;5096848;27;20383;-67
2021/08/13 04:03:30;;;;;;;;;;;;;;;14.14;100.00;101294.69;5096644;28;20023;-67
2021/08/13 04:05:57;;;;;;;;;;;;;;;14.15;100.00;101301.00;5109791;27;19923;-66
2021/08/13 04:08:25;;;;;;;;;;;;;;;14.16;100.00;101287.25;5126702;27;19965;-66
2021/08/13 04:10:51;;;;;;;;;;;;;;;14.23;100.00;101288.41;5108293;27;20233;-67
2021/08/13 04:13:18;;;;;;;;;;;;;;;14.32;100.00;101283.13;5115089;27;19926;-67
2021/08/13 04:15:54;;;;;;;;;;;;;;;14.43;100.00;101290.38;5116512;27;19955;-68
2021/08/13 04:18:22;;;;;;;;;;;;;;;14.53;100.00;101294.88;5115374;27;19984;-71
2021/08/13 04:20:49;;;;;;;;;;;;;;;14.63;100.00;101289.50;5117094;27;19920;-71
2021/08/13 04:23:18;;;;;;;;;;;;;;;14.74;100.00;101280.34;5114731;27;19926;-71
2021/08/13 04:25:47;;;;;;;;;;;;;;;14.83;100.00;101284.09;5104678;28;19927;-71
2021/08/13 04:28:13;;;;;;;;;;;;;;;14.90;100.00;101288.03;5099371;27;19919;-70
2021/08/13 04:30:40;;;;;;;;;;;;;;;15.01;100.00;101279.69;5103765;28;19923;-70
2021/08/13 04:33:09;;;;;;;;;;;;;;;15.14;100.00;101276.72;5098032;27;19919;-69
2021/08/13 04:35:36;;;;;;;;;;;;;;;15.30;100.00;101278.91;5112904;27;19943;-70
2021/08/13 04:38:04;;;;;;;;;;;;;;;15.42;100.00;101273.28;5114577;27;19919;-67
2021/08/13 04:40:30;;;;;;;;;;;;;;;15.57;100.00;101274.59;5114499;27;19919;-67
2021/08/13 04:42:58;;;;;;;;;;;;;;;15.68;100.00;101279.91;5114240;27;19923;-67
2021/08/13 04:45:25;;;;;;;;;;;;;;;15.81;100.00;101274.16;5114344;27;19923;-67
2021/08/13 04:47:53;;;;;;;;;;;;;;;15.94;100.00;101275.72;5114708;27;19919;-67
2021/08/13 04:50:20;;;;;;;;;;;;;;;16.09;100.00;101282.50;5116138;27;19919;-67
2021/08/13 04:52:52;;;;;;;;;;;;;;;16.22;100.00;101272.06;5134136;27;19926;-67
2021/08/13 04:55:19;;;;;;;;;;;;;;;16.37;100.00;101268.88;5116104;27;20294;-70
2021/08/13 04:57:47;;;;;;;;;;;;;;;16.52;100.00;101275.56;5116002;27;20347;-72
2021/08/13 05:00:15;;;;;;;;;;;;;;;16.68;100.00;101260.38;5115817;27;19972;-68
2021/08/13 05:02:42;;;;;;;;;;;;;;;16.82;100.00;101270.84;5134247;27;19920;-67
2021/08/13 05:05:08;;;;;;;;;;;;;;;16.90;100.00;101257.25;5105889;28;20397;-67
2021/08/13 05:07:35;;;;;;;;;;;;;;;17.04;100.00;101268.72;5101809;27;20454;-62
2021/08/13 05:10:07;;;;;;;;;;;;;;;17.13;100.00;101261.41;5105719;27;19931;-62
2021/08/13 05:12:33;;;;;;;;;;;;;;;17.20;100.00;101255.16;5103914;27;19930;-63
2021/08/13 05:15:00;;;;;;;;;;;;;;;17.27;100.00;101251.81;5115267;27;19923;-62
2021/08/13 05:17:28;;;;;;;;;;;;;;;17.32;100.00;101257.69;5100612;27;19923;-70
2021/08/13 05:19:54;;;;;;;;;;;;;;;17.35;100.00;101246.41;5124906;27;20275;-69
2021/08/13 05:22:21;;;;;;;;;;;;;;;17.40;100.00;101255.88;5098575;28;19962;-68
2021/08/13 05:24:47;;;;;;;;;;;;;;;17.43;100.00;101260.19;5113257;28;19938;-68
2021/08/13 05:27:14;;;;;;;;;;;;;;;17.48;100.00;101252.34;5112164;27;20441;-71
2021/08/13 05:29:40;;;;;;;;;;;;;;;17.54;100.00;101246.25;5132504;27;19923;-70
2021/08/13 05:32:07;;;;;;;;;;;;;;;17.59;100.00;101259.50;5110362;27;20379;-70
2021/08/13 05:34:35;;;;;;;;;;;;;;;17.62;100.00;101255.56;5103101;27;20038;-70
2021/08/13 05:37:01;;;;;;;;;;;;;;;17.65;100.00;101258.00;5108704;27;20389;-70
2021/08/13 05:39:29;;;;;;;;;;;;;;;17.69;100.00;101259.38;5110177;27;19919;-70
2021/08/13 05:41:56;;;;;;;;;;;;;;;17.77;100.00;101266.84;5121866;27;19962;-70
2021/08/13 05:44:22;;;;;;;;;;;;;;;17.81;100.00;101260.88;5131584;27;19980;-71
2021/08/13 05:46:49;;;;;;;;;;;;;;;17.83;100.00;101258.81;5109971;27;19968;-67
2021/08/13 05:49:15;;;;;;;;;;;;;;;17.88;100.00;101255.63;5128701;27;19928;-67
2021/08/13 05:51:43;;;;;;;;;;;;;;;17.94;100.00;101262.38;5098501;27;19977;-67
2021/08/13 05:54:09;;;;;;;;;;;;;;;17.99;100.00;101260.03;5119125;27;19920;-67
2021/08/13 05:56:39;;;;;;;;;;;;;;;18.01;100.00;101264.34;5114194;27;19919;-71
2021/08/13 05:59:05;;;;;;;;;;;;;;;17.97;100.00;101268.44;5113708;27;19920;-71
2021/08/13 06:01:34;;;;;;;;;;;;;;;17.92;100.00;101270.78;5112670;27;19968;-68
2021/08/13 06:04:02;;;;;;;;;;;;;;;17.85;100.00;101270.53;5099524;28;20276;-67
2021/08/13 06:06:28;;;;;;;;;;;;;;;17.81;100.00;101274.63;5123256;27;19926;-67
2021/08/13 06:08:56;;;;;;;;;;;;;;;17.79;100.00;101275.78;5095245;28;19919;-71
2021/08/13 06:11:23;;;;;;;;;;;;;;;17.74;100.00;101276.25;5093801;28;20287;-67
2021/08/13 06:13:49;;;;;;;;;;;;;;;17.71;100.00;101269.19;5104767;27;19942;-67
2021/08/13 06:16:17;;;;;;;;;;;;;;;17.70;100.00;101274.84;5113554;27;19920;-70
2021/08/13 06:18:43;;;;;;;;;;;;;;;18.00;100.00;101270.00;5108004;27;20018;-70
2021/08/13 06:21:10;;;;;;;;;;;;;;;18.88;100.00;101267.06;5109879;27;20344;-70
2021/08/13 06:23:37;;;;;;;;;;;;;;;19.76;100.00;101259.28;5122945;27;19930;-71
2021/08/13 06:26:05;;;;;;;;;;;;;;;20.44;100.00;101259.06;5094850;28;19927;-68
2021/08/13 06:28:33;;;;;;;;;;;;;;;20.90;100.00;101251.84;5096088;28;19966;-68
2021/08/13 06:31:00;;;;;;;;;;;;;;;21.41;100.00;101250.50;5113884;28;19958;-68
2021/08/13 06:33:27;;;;;;;;;;;;;;;21.84;100.00;101245.34;5117699;28;20321;-71
2021/08/13 06:35:53;;;;;;;;;;;;;;;22.39;100.00;101248.81;5093971;28;20301;-72
2021/08/13 06:38:19;;;;;;;;;;;;;;;23.10;100.00;101246.50;5128080;27;19919;-72
2021/08/13 06:40:47;;;;;;;;;;;;;;;23.55;100.00;101253.63;5114248;27;20417;-72
2021/08/13 06:43:19;;;;;;;;;;;;;;;23.71;100.00;101248.88;5109056;28;19964;-67
2021/08/13 06:45:54;;;;;;;;;;;;;;;24.03;100.00;101252.19;5105656;28;20442;-71
2021/08/13 06:48:25;;;;;;;;;;;;;;;24.02;100.00;101262.38;5106832;27;19980;-71
2021/08/13 06:50:51;;;;;;;;;;;;;;;24.17;100.00;101256.78;5110174;28;20018;-71
2021/08/13 06:53:17;;;;;;;;;;;;;;;24.51;100.00;101260.59;5130484;27;20382;-67
2021/08/13 06:55:45;;;;;;;;;;;;;;;24.89;100.00;101260.22;5106551;28;20462;-66
2021/08/13 06:58:11;;;;;;;;;;;;;;;25.28;100.00;101256.91;5123282;28;19923;-67
2021/08/13 07:00:42;;;;;;;;;;;;;;;25.65;100.00;101249.09;5101290;28;19939;-72
2021/08/13 07:03:09;;;;;;;;;;;;;;;25.99;100.00;101258.28;5113252;28;19920;-71
2021/08/13 07:05:36;;;;;;;;;;;;;;;26.44;100.00;101252.06;5106604;28;19920;-71
2021/08/13 07:08:06;;;;;;;;;;;;;;;26.26;100.00;101256.41;5093226;28;19920;-67
2021/08/13 07:10:33;;;;;;;;;;;;;;;26.16;100.00;101251.28;5094492;28;20022;-67
2021/08/13 07:13:00;;;;;;;;;;;;;;;26.43;100.00;101262.38;5094507;28;19923;-67
2021/08/13 07:15:26;;;;;;;;;;;;;;;26.57;100.00;101258.44;5113210;28;19919;-67
2021/08/13 07:17:54;;;;;;;;;;;;;;;26.14;100.00;101267.31;5098293;28;20406;-70
2021/08/13 07:20:20;;;;;;;;;;;;;;;26.00;100.00;101257.22;5131775;27;19927;-70
2021/08/13 07:22:48;;;;;;;;;;;;;;;25.89;100.00;101256.78;5107660;28;20389;-66
2021/08/13 07:25:15;;;;;;;;;;;;;;;25.58;100.00;101262.16;5108809;28;19972;-66
2021/08/13 07:27:41;;;;;;;;;;;;;;;25.11;100.00;101264.75;5111245;28;20005;-65
2021/08/13 07:30:09;;;;;;;;;;;;;;;24.80;100.00;101271.66;5096397;28;19962;-71
2021/08/13 07:32:36;;;;;;;;;;;;;;;24.71;100.00;101276.56;5125242;27;19966;-71
2021/08/13 07:35:04;;;;;;;;;;;;;;;24.65;100.00;101269.91;5112663;28;20018;-71
2021/08/13 07:37:37;;;;;;;;;;;;;;;25.01;100.00;101270.69;5112478;28;20022;-71
2021/08/13 07:40:03;;;;;;;;;;;;;;;25.15;100.00;101266.91;5110948;28;20406;-71
2021/08/13 07:42:30;;;;;;;;;;;;;;;25.53;100.00;101263.59;5094038;28;19926;-67
2021/08/13 07:44:58;;;;;;;;;;;;;;;25.76;100.00;101265.13;5094483;28;20022;-67
2021/08/13 07:47:24;;;;;;;;;;;;;;;26.40;100.00;101262.78;5112876;28;19923;-71
2021/08/13 07:49:52;;;;;;;;;;;;;;;26.90;100.00;101265.88;5101641;28;19969;-71
2021/08/13 07:52:19;;;;;;;;;;;;;;;27.85;100.00;101264.25;5107978;28;19973;-66
2021/08/13 07:54:46;;;;;;;;;;;;;;;28.09;99.81;101258.06;5111151;28;20412;-72
2021/08/13 07:57:13;;;;;;;;;;;;;;;28.28;100.00;101251.47;5097668;27;19931;-66
2021/08/13 07:59:39;;;;;;;;;;;;;;;28.04;100.00;101250.41;5107325;28;19919;-66
2021/08/13 08:02:07;;;;;;;;;;;;;;;28.21;100.00;101253.47;5115463;27;19919;-67
2021/08/13 08:04:34;;;;;;;;;;;;;;;28.53;99.53;101258.94;5134402;27;20018;-66
2021/08/13 08:07:00;;;;;;;;;;;;;;;28.72;92.65;101246.69;5118992;27;20374;-71
2021/08/13 08:09:27;;;;;;;;;;;;;;;28.86;93.76;101260.50;5114173;28;19920;-71
2021/08/13 08:11:54;;;;;;;;;;;;;;;29.16;85.50;101257.75;5122414;27;19927;-67
2021/08/13 08:14:21;;;;;;;;;;;;;;;29.51;85.50;101248.66;5125834;27;19920;-67
2021/08/13 08:16:47;;;;;;;;;;;;;;;29.48;85.38;101253.91;5114191;27;19924;-67
2021/08/13 08:19:13;;;;;;;;;;;;;;;29.98;80.26;101252.69;5126269;27;19923;-73
2021/08/13 08:21:40;;;;;;;;;;;;;;;30.02;72.73;101254.75;5130990;27;19927;-73
2021/08/13 08:24:06;;;;;;;;;;;;;;;30.13;77.55;101249.41;5113071;28;20379;-71
2021/08/13 08:26:34;;;;;;;;;;;;;;;30.00;73.13;101251.34;5113649;28;19920;-72
2021/08/13 08:29:00;;;;;;;;;;;;;;;29.80;73.87;101253.59;5113678;28;19919;-71
2021/08/13 08:31:26;;;;;;;;;;;;;;;30.29;76.17;101253.41;5113008;28;20409;-66
2021/08/13 08:33:53;;;;;;;;;;;;;;;30.62;70.50;101246.34;5097005;27;19919;-67
2021/08/13 08:36:19;;;;;;;;;;;;;;;30.88;71.83;101245.81;5132513;27;19923;-71
2021/08/13 08:38:45;;;;;;;;;;;;;;;31.10;73.74;101247.94;5131934;27;19941;-71
2021/08/13 08:41:12;;;;;;;;;;;;;;;30.98;64.66;101247.97;5134347;27;20014;-70
2021/08/13 08:43:39;;;;;;;;;;;;;;;31.45;73.10;101244.13;5115449;27;20298;-70
2021/08/13 08:46:05;;;;;;;;;;;;;;;31.19;65.49;101254.84;5113925;28;19920;-70
2021/08/13 08:48:36;;;;;;;;;;;;;;;31.75;63.53;101254.25;5113947;27;19952;-64
2021/08/13 08:51:02;;;;;;;;;;;;;;;31.95;63.66;101252.84;5124835;27;20301;-70
2021/08/13 08:53:29;;;;;;;;;;;;;;;31.94;60.55;101251.19;5124291;27;19923;-71
2021/08/13 08:55:56;;;;;;;;;;;;;;;31.77;59.64;101249.22;5113577;28;19923;-63
2021/08/13 08:58:24;;;;;;;;;;;;;;;31.73;61.20;101253.63;5130564;27;20026;-63
2021/08/13 09:00:52;;;;;;;;;;;;;;;30.92;61.63;101250.91;5120259;27;19920;-63
2021/08/13 09:03:20;;;;;;;;;;;;;;;30.38;69.65;101260.34;5113316;28;19920;-64
2021/08/13 09:05:47;;;;;;;;;;;;;;;30.11;76.30;101260.00;5124815;27;19972;-64
2021/08/13 09:08:13;;;;;;;;;;;;;;;30.06;76.43;101249.53;5133690;27;19919;-63
2021/08/13 09:10:40;;;;;;;;;;;;;;;30.28;76.25;101258.19;5121672;27;19924;-63
2021/08/13 09:13:08;;;;;;;;;;;;;;;30.32;70.99;101253.78;5128153;27;19998;-64
2021/08/13 09:15:35;;;;;;;;;;;;;;;30.18;63.64;101253.16;5128224;27;20344;-64
2021/08/13 09:18:25;;;;;;;;;;;;;;;30.41;64.54;101248.66;5133695;27;19926;-70
2021/08/13 09:20:54;;;;;;;;;;;;;;;30.92;64.41;101246.16;5107982;27;20025;-70
2021/08/13 09:23:31;;;;;;;;;;;;;;;30.72;63.09;101250.22;5133594;27;19926;-70
2021/08/13 09:25:58;;;;;;;;;;;;;;;31.07;64.87;101258.78;5113697;27;19929;-70
2021/08/13 09:28:44;;;;;;;;;;;;;;;31.89;58.74;101268.78;5112608;28;20006;-69
2021/08/13 09:31:13;;;;;;;;;;;;;;;32.11;59.61;101263.25;5095095;28;20448;-69
2021/08/13 09:33:40;;;;;;;;;;;;;;;32.18;54.30;101265.91;5116744;27;19971;-70
2021/08/13 09:36:07;;;;;;;;;;;;;;;32.29;51.99;101264.09;5133522;27;19923;-70
2021/08/13 09:38:34;;;;;;;;;;;;;;;32.17;51.00;101276.28;5118404;27;19919;-70
2021/08/13 09:41:06;;;;;;;;;;;;;;;31.99;51.55;101263.34;5112829;28;19959;-70
2021/08/13 09:43:32;;;;;;;;;;;;;;;31.72;52.13;101254.72;5125826;27;20010;-65
2021/08/13 09:46:08;;;;;;;;;;;;;;;31.76;58.87;101258.72;5114596;27;20394;-64
2021/08/13 09:48:34;;;;;;;;;;;;;;;32.43;53.42;101257.03;5122165;27;19967;-64
2021/08/13 09:51:00;;;;;;;;;;;;;;;32.22;53.86;101253.91;5103890;28;19973;-64
2021/08/13 09:53:28;;;;;;;;;;;;;;;32.05;55.01;101241.81;5093906;28;19969;-64
2021/08/13 09:55:54;;;;;;;;;;;;;;;31.99;53.21;101237.19;5095350;27;19919;-64
2021/08/13 09:58:25;;;;;;;;;;;;;;;32.16;54.15;101234.41;5131646;27;19919;-64
2021/08/13 10:00:53;;;;;;;;;;;;;;;32.47;56.54;101246.97;5114638;27;19970;-64
2021/08/13 10:03:20;;;;;;;;;;;;;;;32.02;52.09;101226.31;5113798;27;20327;-65
2021/08/13 10:06:01;;;;;;;;;;;;;;;32.17;52.69;101241.75;5112341;27;19919;-64
2021/08/13 10:08:39;;;;;;;;;;;;;;;32.02;53.34;101231.09;5113104;27;19920;-64
2021/08/13 10:11:10;;;;;;;;;;;;;;;32.22;52.45;101241.81;5095083;27;19927;-63
2021/08/13 10:13:43;;;;;;;;;;;;;;;32.58;50.71;101235.84;5108145;28;19962;-64
2021/08/13 10:16:21;;;;;;;;;;;;;;;32.90;47.08;101237.97;5100505;27;19919;-64
2021/08/13 10:18:49;;;;;;;;;;;;;;;33.41;47.82;101234.91;5111547;27;19928;-63
2021/08/13 10:21:15;;;;;;;;;;;;;;;33.02;45.51;101227.47;5130305;27;19919;-66
2021/08/13 10:23:43;;;;;;;;;;;;;;;32.87;47.79;101234.59;5101474;28;19923;-72
2021/08/13 10:26:10;;;;;;;;;;;;;;;33.31;48.03;101232.84;5113437;27;20010;-72
2021/08/13 10:28:38;;;;;;;;;;;;;;;33.50;45.65;101233.31;5093825;28;19924;-72
2021/08/13 10:31:08;;;;;;;;;;;;;;;33.77;47.37;101243.69;5110626;28;20000;-72
2021/08/13 10:33:44;;;;;;;;;;;;;;;33.60;44.41;101239.03;5110849;28;19919;-72
2021/08/13 10:36:10;;;;;;;;;;;;;;;34.15;47.41;101234.16;5112805;27;19926;-67
2021/08/13 10:38:38;;;;;;;;;;;;;;;33.83;45.03;101229.44;5113841;27;20266;-66
2021/08/13 10:41:08;;;;;;;;;;;;;;;33.82;45.62;101224.91;5094637;28;20391;-67
2021/08/13 10:43:35;;;;;;;;;;;;;;;33.33;46.13;101237.09;5112594;28;20359;-67
2021/08/13 10:46:06;;;;;;;;;;;;;;;33.31;45.07;101236.53;5093716;28;19919;-71
2021/08/13 10:48:35;;;;;;;;;;;;;;;33.16;45.20;101233.50;5125288;28;19919;-67
2021/08/13 10:51:02;;;;;;;;;;;;;;;33.30;43.89;101228.34;5114085;28;19920;-66
2021/08/13 10:53:30;;;;;;;;;;;;;;;32.68;49.78;101221.94;5118812;28;19920;-71
2021/08/13 10:55:58;;;;;;;;;;;;;;;32.90;47.96;101223.94;5093296;28;19919;-67
2021/08/13 11:01:21;;;;;;;;;;;;;;;32.67;46.71;101217.44;5088673;27;20016;-66
2021/08/13 11:04:13;;;;;;;;;;;;;;;33.07;45.58;101230.31;5087466;28;20391;-68
2021/08/13 11:06:44;;;;;;;;;;;;;;;32.40;49.14;101226.63;5087655;28;19924;-72
2021/08/13 11:09:14;;;;;;;;;;;;;;;32.38;46.97;101209.19;5070009;28;19924;-67
2021/08/13 11:12:02;;;;;;;;;;;;;;;32.45;47.75;101217.44;5067653;28;20078;-72
2021/08/13 11:14:33;;;;;;;;;;;;;;;31.70;48.05;101226.09;5080188;28;19951;-64
2021/08/13 11:17:01;;;;;;;;;;;;;;;32.07;57.87;101211.53;5087511;28;20451;-66
2021/08/13 11:19:28;;;;;;;;;;;;;;;32.46;50.91;101214.38;5067739;28;19928;-66
2021/08/13 11:21:59;;;;;;;;;;;;;;;31.81;50.43;101213.06;5068519;28;20010;-65
2021/08/13 11:24:27;;;;;;;;;;;;;;;31.38;53.05;101199.41;5068798;28;20006;-72
2021/08/13 11:27:10;;;;;;;;;;;;;;;32.00;52.38;101197.69;5080072;28;19924;-67
2021/08/13 11:29:42;;;;;;;;;;;;;;;32.47;49.24;101190.78;5087193;28;20036;-66
2021/08/13 11:32:37;;;;;;;;;;;;;;;31.91;47.54;101201.16;5067239;28;20324;-71
2021/08/13 11:35:05;;;;;;;;;;;;;;;32.85;49.16;101200.28;5068103;28;19931;-68
2021/08/13 11:37:50;;;;;;;;;;;;;;;32.74;45.59;101191.97;5050265;28;19952;-66
2021/08/13 11:40:37;;;;;;;;;;;;;;;32.62;45.24;101192.94;5066803;28;19925;-67
2021/08/13 11:43:04;;;;;;;;;;;;;;;32.64;47.14;101182.28;5061252;28;20348;-66
2021/08/13 11:45:36;;;;;;;;;;;;;;;32.95;48.21;101187.44;5079032;28;19978;-67
2021/08/13 11:48:07;;;;;;;;;;;;;;;33.10;44.71;101187.63;5082362;28;20384;-67
2021/08/13 11:50:34;;;;;;;;;;;;;;;33.58;41.97;101182.19;5086738;28;19924;-67
2021/08/13 11:53:00;;;;;;;;;;;;;;;34.01;41.58;101173.81;5075881;28;20399;-67
2021/08/13 11:55:29;;;;;;;;;;;;;;;34.15;39.70;101183.47;5085353;28;19936;-66
2021/08/13 11:57:56;;;;;;;;;;;;;;;33.97;40.62;101169.84;5076387;28;19924;-66
2021/08/13 12:00:24;;;;;;;;;;;;;;;33.93;40.21;101169.53;5080001;28;19924;-68
2021/08/13 12:02:56;;;;;;;;;;;;;;;33.83;40.44;101163.84;5071371;28;20012;-67
2021/08/13 12:05:27;;;;;;;;;;;;;;;33.25;40.14;101175.72;5087071;28;19950;-71
2021/08/13 12:07:57;;;;;;;;;;;;;;;32.73;41.75;101174.28;5073561;28;19932;-67
2021/08/13 12:10:23;;;;;;;;;;;;;;;32.75;38.00;101172.06;5083169;28;20174;-67
2021/08/13 12:12:49;;;;;;;;;;;;;;;33.38;39.05;101174.44;5075669;28;19959;-67
2021/08/13 12:15:26;;;;;;;;;;;;;;;33.78;37.88;101161.84;5076205;28;19928;-66
2021/08/13 12:17:52;;;;;;;;;;;;;;;34.05;36.96;101160.91;5075998;28;19939;-67
2021/08/13 12:20:19;;;;;;;;;;;;;;;33.98;39.02;101166.75;5093798;28;20018;-67
2021/08/13 12:22:46;;;;;;;;;;;;;;;33.02;36.65;101171.25;5075851;28;19923;-68
2021/08/13 12:25:14;;;;;;;;;;;;;;;32.47;38.49;101171.13;5076128;28;19993;-72
2021/08/13 12:27:43;;;;;;;;;;;;;;;32.61;39.46;101174.38;5075869;28;20302;-72
2021/08/13 12:30:14;;;;;;;;;;;;;;;32.25;40.68;101167.47;5075880;28;19924;-73
2021/08/13 12:32:42;;;;;;;;;;;;;;;31.76;40.38;101173.72;5075686;28;19935;-71
2021/08/13 12:35:10;;;;;;;;;;;;;;;31.48;44.61;101165.09;5093728;28;20453;-71
2021/08/13 12:37:36;;;;;;;;;;;;;;;31.08;46.28;101171.69;5068671;28;19932;-72
2021/08/13 12:40:05;;;;;;;;;;;;;;;31.47;47.85;101156.94;5066934;28;19978;-72